createdAt,value
2019-03-26T00:01:54.358Z,70.00
2019-03-26T00:04:25.174Z,70.10
2019-03-26T00:06:53.492Z,69.50
2019-03-26T00:09:21.906Z,68.70
2019-03-26T00:11:50.155Z,68.30
2019-03-26T00:14:18.414Z,68.20
2019-03-26T00:16:46.705Z,68.10
2019-03-26T00:19:14.901Z,67.90
2019-03-26T00:21:43.353Z,68.50
2019-03-26T00:24:11.661Z,68.70
2019-03-26T00:26:40.130Z,68.40
2019-03-26T00:29:08.373Z,68.30
2019-03-26T00:31:42.836Z,68.30
2019-03-26T00:34:19.156Z,68.80
2019-03-26T00:36:41.414Z,69.00
2019-03-26T00:39:09.716Z,69.90
2019-03-26T00:41:38.040Z,69.90
2019-03-26T00:44:06.343Z,70.60
2019-03-26T00:46:34.623Z,70.80
2019-03-26T00:49:03.012Z,71.40
2019-03-26T00:51:31.253Z,71.90
2019-03-26T00:53:59.639Z,72.40
2019-03-26T00:56:28.230Z,72.20
2019-03-26T00:58:56.508Z,73.10
2019-03-26T01:01:25.156Z,74.00
2019-03-26T01:03:54.939Z,73.80
2019-03-26T01:06:23.726Z,74.40
2019-03-26T01:08:52.041Z,74.10
2019-03-26T01:11:20.337Z,74.70
2019-03-26T01:13:48.859Z,75.00
2019-03-26T01:16:16.994Z,75.50
2019-03-26T01:18:45.239Z,76.40
2019-03-26T01:21:13.462Z,76.20
2019-03-26T01:23:41.858Z,76.10
2019-03-26T01:26:10.275Z,77.00
2019-03-26T01:28:38.673Z,76.90
2019-03-26T01:31:06.850Z,76.90
2019-03-26T01:33:35.130Z,77.10
2019-03-26T01:36:03.350Z,77.50
2019-03-26T01:38:36.649Z,77.80
2019-03-26T01:41:05.084Z,76.60
2019-03-26T01:43:33.348Z,76.40
2019-03-26T01:46:01.633Z,76.80
2019-03-26T01:48:30.159Z,76.00
2019-03-26T01:50:58.357Z,75.40
2019-03-26T01:53:26.657Z,74.80
2019-03-26T01:55:57.001Z,74.60
2019-03-26T01:58:25.357Z,74.90
2019-03-26T02:00:53.800Z,74.90
2019-03-26T02:03:22.111Z,74.50
2019-03-26T02:05:50.422Z,74.70
2019-03-26T02:08:18.659Z,74.70
2019-03-26T02:11:02.246Z,74.50
2019-03-26T02:13:31.990Z,74.00
2019-03-26T02:16:00.453Z,73.40
2019-03-26T02:18:28.578Z,73.30
2019-03-26T02:20:57.005Z,74.10
2019-03-26T02:23:25.357Z,73.30
2019-03-26T02:25:53.617Z,73.30
2019-03-26T02:28:21.897Z,73.50
2019-03-26T02:30:50.272Z,74.20
2019-03-26T02:33:18.601Z,74.00
2019-03-26T02:35:46.997Z,74.10
2019-03-26T02:38:15.183Z,74.50
2019-03-26T02:40:43.433Z,74.80
2019-03-26T02:43:11.691Z,76.00
2019-03-26T02:45:40.182Z,75.90
2019-03-26T02:48:08.665Z,75.70
2019-03-26T02:50:37.069Z,75.80
2019-03-26T02:53:08.974Z,75.90
2019-03-26T02:55:37.502Z,75.80
2019-03-26T02:58:05.968Z,75.90
2019-03-26T03:00:36.423Z,75.90
2019-03-26T03:03:04.675Z,74.90
2019-03-26T03:05:35.568Z,74.20
2019-03-26T03:08:03.376Z,74.30
2019-03-26T03:10:31.809Z,74.70
2019-03-26T03:13:00.117Z,75.00
2019-03-26T03:15:28.337Z,75.30
2019-03-26T03:17:56.585Z,74.90
2019-03-26T03:20:24.910Z,75.30
2019-03-26T03:22:53.652Z,75.00
2019-03-26T03:25:22.048Z,76.00
2019-03-26T03:27:50.354Z,76.70
2019-03-26T03:30:18.760Z,77.30
2019-03-26T03:32:47.147Z,77.50
2019-03-26T03:35:15.473Z,77.30
2019-03-26T03:37:43.726Z,78.20
2019-03-26T03:40:14.223Z,79.10
2019-03-26T03:42:42.617Z,79.30
2019-03-26T03:45:11.335Z,79.80
2019-03-26T03:47:43.588Z,80.20
2019-03-26T03:50:12.311Z,81.10
2019-03-26T03:52:41.605Z,81.50
2019-03-26T03:55:11.376Z,82.70
2019-03-26T03:57:39.786Z,82.60
2019-03-26T04:00:16.693Z,82.30
2019-03-26T04:02:45.051Z,82.90
2019-03-26T04:05:14.932Z,83.70
2019-03-26T04:07:43.227Z,84.10
2019-03-26T04:10:11.587Z,84.40
2019-03-26T04:12:40.094Z,84.30
2019-03-26T04:15:08.513Z,84.10
2019-03-26T04:17:36.760Z,84.30
2019-03-26T04:20:05.204Z,84.20
2019-03-26T04:22:33.509Z,84.10
2019-03-26T04:25:01.863Z,84.20
2019-03-26T04:27:30.346Z,84.20
2019-03-26T04:29:58.513Z,83.70
2019-03-26T04:32:26.830Z,83.20
2019-03-26T04:34:57.123Z,83.00
2019-03-26T04:37:25.436Z,83.00
2019-03-26T04:39:53.972Z,82.40
2019-03-26T04:42:22.370Z,82.70
2019-03-26T04:44:50.553Z,82.30
2019-03-26T04:47:18.923Z,81.60
2019-03-26T04:49:47.194Z,81.80
2019-03-26T04:52:15.596Z,81.70
2019-03-26T04:54:44.186Z,81.10
2019-03-26T04:57:13.593Z,80.60
2019-03-26T04:59:44.689Z,80.80
2019-03-26T05:02:12.983Z,81.00
2019-03-26T05:04:42.646Z,81.10
2019-03-26T05:07:10.874Z,80.70
2019-03-26T05:09:39.081Z,80.10
2019-03-26T05:12:07.547Z,80.20
2019-03-26T05:14:36.080Z,79.50
2019-03-26T05:17:04.394Z,79.00
2019-03-26T05:19:32.734Z,77.80
2019-03-26T05:22:00.949Z,76.10
2019-03-26T05:24:29.433Z,75.80
2019-03-26T05:26:57.803Z,74.60
2019-03-26T05:29:26.065Z,75.00
2019-03-26T05:31:54.541Z,74.20
2019-03-26T05:34:23.164Z,74.10
2019-03-26T05:36:51.972Z,74.60
2019-03-26T05:39:20.521Z,75.20
2019-03-26T05:41:49.020Z,75.10
2019-03-26T05:44:17.517Z,74.90
2019-03-26T05:46:47.551Z,75.00
2019-03-26T05:49:15.940Z,75.10
2019-03-26T05:51:44.250Z,73.50
2019-03-26T05:54:12.428Z,73.40
2019-03-26T05:56:40.826Z,74.00
2019-03-26T05:59:09.302Z,74.80
2019-03-26T06:01:37.735Z,75.00
2019-03-26T06:04:06.136Z,74.00
2019-03-26T06:06:34.861Z,74.30
2019-03-26T06:09:05.544Z,73.70
2019-03-26T06:11:33.913Z,72.40
2019-03-26T06:14:08.675Z,72.00
2019-03-26T06:16:38.632Z,71.00
2019-03-26T06:19:07.266Z,70.10
2019-03-26T06:21:35.617Z,71.30
2019-03-26T06:24:04.324Z,71.20
2019-03-26T06:26:33.057Z,71.50
2019-03-26T06:29:01.688Z,71.90
2019-03-26T06:31:33.070Z,71.10
2019-03-26T06:34:01.791Z,71.70
2019-03-26T06:36:31.738Z,71.90
2019-03-26T06:39:00.380Z,72.40
2019-03-26T06:41:28.848Z,72.70
2019-03-26T06:43:57.402Z,70.60
2019-03-26T06:46:25.859Z,72.00
2019-03-26T06:49:00.283Z,71.20
2019-03-26T06:51:25.957Z,71.80
2019-03-26T06:53:54.973Z,71.00
2019-03-26T06:56:23.672Z,70.90
2019-03-26T06:58:54.851Z,70.40
2019-03-26T07:01:23.535Z,70.70
2019-03-26T07:03:53.403Z,69.90
2019-03-26T07:06:23.103Z,69.70
2019-03-26T07:08:53.004Z,70.00
2019-03-26T07:11:22.591Z,70.70
2019-03-26T07:13:53.748Z,70.00
2019-03-26T07:16:38.115Z,69.20
2019-03-26T07:19:07.025Z,69.80
2019-03-26T07:21:49.180Z,69.60
2019-03-26T07:24:11.995Z,69.90
2019-03-26T07:27:02.157Z,69.60
2019-03-26T07:29:37.042Z,71.00
2019-03-26T07:32:07.065Z,69.90
2019-03-26T07:34:39.246Z,68.00
2019-03-26T07:37:09.380Z,67.90
2019-03-26T07:39:40.227Z,68.00
2019-03-26T07:42:09.333Z,67.80
2019-03-26T07:44:46.415Z,66.80
2019-03-26T07:47:21.015Z,66.60
2019-03-26T07:49:50.721Z,65.80
2019-03-26T07:52:19.717Z,65.00
2019-03-26T07:54:50.230Z,64.70
2019-03-26T07:57:19.698Z,64.60
2019-03-26T07:59:50.348Z,65.40
2019-03-26T08:02:21.107Z,66.10
2019-03-26T08:04:50.693Z,66.20
2019-03-26T08:07:19.465Z,66.70
2019-03-26T08:09:51.574Z,67.00
2019-03-26T08:12:27.002Z,66.80
2019-03-26T08:14:55.617Z,68.20
2019-03-26T08:17:24.703Z,68.40
2019-03-26T08:19:54.653Z,68.10
2019-03-26T08:22:29.014Z,67.70
2019-03-26T08:25:12.470Z,67.60
2019-03-26T08:27:41.590Z,66.90
2019-03-26T08:30:10.782Z,67.30
2019-03-26T08:32:39.521Z,67.60
2019-03-26T08:35:08.034Z,67.50
2019-03-26T08:37:36.555Z,67.30
2019-03-26T08:40:06.157Z,67.20
2019-03-26T08:42:34.530Z,67.80
2019-03-26T08:45:02.992Z,67.00
2019-03-26T08:47:35.143Z,66.20
2019-03-26T08:50:08.474Z,66.30
2019-03-26T08:52:38.733Z,66.50
2019-03-26T08:55:09.291Z,66.90
2019-03-26T08:57:42.000Z,65.80
2019-03-26T09:00:12.426Z,65.50
2019-03-26T09:02:42.165Z,64.70
2019-03-26T09:05:11.054Z,64.50
2019-03-26T09:07:43.663Z,64.60
2019-03-26T09:10:12.506Z,64.90
2019-03-26T09:12:40.970Z,64.70
2019-03-26T09:15:14.211Z,64.90
2019-03-26T09:17:44.340Z,65.30
2019-03-26T09:20:12.669Z,64.90
2019-03-26T09:22:43.983Z,64.20
2019-03-26T09:25:12.433Z,64.80
2019-03-26T09:27:41.104Z,65.40
2019-03-26T09:30:11.431Z,65.20
2019-03-26T09:32:40.101Z,65.60
2019-03-26T09:35:08.988Z,65.10
2019-03-26T09:37:38.419Z,64.60
2019-03-26T09:40:07.516Z,64.80
2019-03-26T09:42:36.276Z,65.00
2019-03-26T09:45:05.694Z,65.40
2019-03-26T09:47:34.280Z,65.20
2019-03-26T09:50:02.665Z,65.20
2019-03-26T09:52:30.977Z,65.70
2019-03-26T09:54:59.308Z,65.10
2019-03-26T09:57:27.676Z,65.10
2019-03-26T09:59:56.136Z,65.30
2019-03-26T10:02:24.640Z,65.60
2019-03-26T10:04:52.909Z,64.80
2019-03-26T10:07:22.025Z,63.90
2019-03-26T10:09:53.430Z,64.00
2019-03-26T10:12:22.026Z,64.60
2019-03-26T10:14:50.495Z,64.50
2019-03-26T10:17:20.035Z,64.30
2019-03-26T10:19:48.585Z,64.50
2019-03-26T10:22:19.905Z,64.70
2019-03-26T10:24:47.522Z,64.70
2019-03-26T10:27:19.045Z,64.50
2019-03-26T10:29:47.593Z,65.10
2019-03-26T10:32:17.530Z,65.00
2019-03-26T10:34:45.975Z,65.10
2019-03-26T10:37:14.446Z,65.20
2019-03-26T10:39:43.242Z,64.30
2019-03-26T10:42:21.206Z,64.00
2019-03-26T10:44:49.703Z,64.40
2019-03-26T10:47:18.295Z,64.80
2019-03-26T10:49:48.342Z,64.60
2019-03-26T10:52:16.690Z,64.40
2019-03-26T10:54:45.227Z,64.40
2019-03-26T10:57:16.693Z,65.00
2019-03-26T10:59:45.024Z,65.30
2019-03-26T11:02:15.985Z,64.30
2019-03-26T11:04:45.242Z,63.20
2019-03-26T11:07:13.741Z,63.10
2019-03-26T11:09:42.125Z,61.70
2019-03-26T11:12:10.854Z,61.40
2019-03-26T11:14:39.132Z,61.00
2019-03-26T11:17:07.433Z,60.60
2019-03-26T11:19:36.282Z,60.70
2019-03-26T11:22:06.703Z,60.70
2019-03-26T11:24:36.369Z,60.40
2019-03-26T11:27:04.637Z,60.30
2019-03-26T11:29:33.108Z,60.80
2019-03-26T11:32:01.469Z,60.30
2019-03-26T11:34:50.023Z,60.20
2019-03-26T11:37:18.509Z,59.00
2019-03-26T11:39:46.921Z,58.80
2019-03-26T11:42:15.277Z,59.00
2019-03-26T11:44:43.966Z,58.70
2019-03-26T11:47:16.679Z,57.80
2019-03-26T11:49:50.599Z,57.50
2019-03-26T11:52:18.940Z,57.20
2019-03-26T11:54:48.127Z,56.90
2019-03-26T11:57:16.898Z,56.50
2019-03-26T11:59:45.514Z,56.00
2019-03-26T12:02:15.031Z,55.60
2019-03-26T12:04:43.361Z,55.40
2019-03-26T12:07:12.206Z,55.20
2019-03-26T12:09:46.343Z,55.50
2019-03-26T12:12:10.862Z,55.60
2019-03-26T12:14:40.428Z,56.00
2019-03-26T12:17:09.334Z,56.30
2019-03-26T12:19:37.671Z,55.80
2019-03-26T12:22:07.305Z,55.40
2019-03-26T12:24:36.357Z,55.90
2019-03-26T12:27:04.995Z,56.00
2019-03-26T12:29:33.498Z,55.60
2019-03-26T12:32:01.913Z,54.80
2019-03-26T12:34:30.650Z,54.80
2019-03-26T12:36:59.110Z,55.00
2019-03-26T12:39:29.229Z,55.60
2019-03-26T12:41:57.711Z,56.20
2019-03-26T12:44:27.638Z,56.30
2019-03-26T12:46:58.324Z,57.70
2019-03-26T12:49:30.881Z,57.60
2019-03-26T12:51:59.143Z,54.60
2019-03-26T12:54:29.878Z,55.00
2019-03-26T12:56:58.105Z,54.20
2019-03-26T12:59:26.847Z,54.00
2019-03-26T13:01:55.433Z,54.50
2019-03-26T13:04:25.632Z,53.30
2019-03-26T13:06:54.025Z,52.60
2019-03-26T13:09:22.682Z,52.90
2019-03-26T13:11:51.083Z,52.70
2019-03-26T13:14:19.892Z,52.20
2019-03-26T13:16:48.105Z,52.30
2019-03-26T13:19:18.078Z,52.00
2019-03-26T13:21:46.657Z,51.30
2019-03-26T13:24:15.047Z,49.50
2019-03-26T13:26:43.225Z,49.00
2019-03-26T13:29:11.699Z,49.70
2019-03-26T13:31:41.462Z,49.90
2019-03-26T13:34:18.192Z,49.60
2019-03-26T13:36:46.627Z,48.70
2019-03-26T13:39:15.260Z,50.20
2019-03-26T13:41:43.651Z,50.30
2019-03-26T13:44:12.010Z,49.90
2019-03-26T13:46:40.406Z,49.10
2019-03-26T13:49:09.149Z,50.20
2019-03-26T13:51:37.471Z,51.00
2019-03-26T13:54:06.487Z,50.30
2019-03-26T13:56:35.111Z,50.00
2019-03-26T13:59:03.516Z,50.20
2019-03-26T14:01:34.253Z,51.10
2019-03-26T14:04:06.182Z,50.80
2019-03-26T14:06:34.482Z,53.00
2019-03-26T14:09:07.399Z,53.10
2019-03-26T14:11:36.355Z,54.30
2019-03-26T14:14:04.642Z,54.50
2019-03-26T14:16:33.015Z,54.80
2019-03-26T14:19:01.486Z,55.30
2019-03-26T14:21:29.747Z,55.70
2019-03-26T14:23:57.983Z,56.50
2019-03-26T14:26:29.443Z,57.20
2019-03-26T14:28:57.929Z,58.00
2019-03-26T14:31:26.556Z,58.20
2019-03-26T14:33:55.372Z,57.90
2019-03-26T14:36:23.730Z,57.60
2019-03-26T14:38:52.026Z,57.60
2019-03-26T14:41:20.821Z,57.50
2019-03-26T14:43:49.217Z,57.60
2019-03-26T14:46:17.518Z,58.60
2019-03-26T14:48:46.131Z,58.70
2019-03-26T14:51:14.738Z,59.00
2019-03-26T14:53:44.781Z,59.70
2019-03-26T14:56:13.222Z,60.80
2019-03-26T14:58:42.885Z,60.90
2019-03-26T15:01:11.214Z,61.70
2019-03-26T15:03:39.706Z,64.00
2019-03-26T15:06:08.019Z,62.80
2019-03-26T15:08:36.451Z,62.60
2019-03-26T15:11:25.466Z,62.50
2019-03-26T15:13:53.770Z,75.00
2019-03-26T15:16:32.276Z,81.00
2019-03-26T15:19:00.872Z,84.90
2019-03-26T15:22:19.483Z,87.70
2019-03-26T15:24:47.862Z,87.30
2019-03-26T15:27:16.290Z,88.20
2019-03-26T15:29:44.522Z,87.00
2019-03-26T15:32:12.777Z,84.80
2019-03-26T15:34:40.976Z,84.20
2019-03-26T15:37:09.399Z,83.80
2019-03-26T15:39:37.883Z,83.00
2019-03-26T15:42:06.324Z,75.50
2019-03-26T15:44:34.641Z,73.30
2019-03-26T15:47:03.300Z,75.30
2019-03-26T15:49:31.670Z,74.80
2019-03-26T15:51:59.974Z,71.90
2019-03-26T15:54:30.075Z,71.00
2019-03-26T15:56:58.480Z,70.20
2019-03-26T15:59:26.727Z,70.30
2019-03-26T16:01:54.987Z,72.20
2019-03-26T16:04:23.207Z,70.00
2019-03-26T16:06:51.674Z,69.60
2019-03-26T16:09:19.944Z,68.90
2019-03-26T16:11:48.060Z,69.00
2019-03-26T16:14:16.533Z,70.10
2019-03-26T16:16:44.944Z,70.30
2019-03-26T16:19:13.549Z,70.10
2019-03-26T16:21:42.388Z,68.10
2019-03-26T16:24:11.864Z,69.60
2019-03-26T16:26:43.243Z,70.30
2019-03-26T16:29:11.507Z,69.80
2019-03-26T16:31:39.762Z,70.10
2019-03-26T16:34:08.026Z,70.50
2019-03-26T16:36:36.300Z,70.80
2019-03-26T16:39:06.644Z,70.80
2019-03-26T16:41:48.116Z,72.50
2019-03-26T16:44:05.060Z,72.20
2019-03-26T16:46:36.321Z,72.90
2019-03-26T16:49:03.546Z,74.50
2019-03-26T16:51:32.041Z,73.80
2019-03-26T16:54:02.031Z,75.60
2019-03-26T16:56:30.416Z,75.90
2019-03-26T16:58:58.914Z,76.30
2019-03-26T17:01:27.233Z,77.30
2019-03-26T17:03:56.278Z,77.10
2019-03-26T17:06:24.520Z,80.00
2019-03-26T17:08:52.817Z,81.30
2019-03-26T17:11:21.394Z,81.70
2019-03-26T17:13:49.793Z,82.60
2019-03-26T17:16:19.928Z,81.40
2019-03-26T17:18:48.279Z,81.40
2019-03-26T17:21:18.351Z,81.20
2019-03-26T17:23:48.081Z,81.40
2019-03-26T17:26:19.460Z,80.40
2019-03-26T17:28:47.687Z,80.10
2019-03-26T17:31:16.006Z,79.90
2019-03-26T17:33:44.203Z,79.90
2019-03-26T17:36:12.524Z,79.30
2019-03-26T17:38:41.130Z,78.20
2019-03-26T17:41:09.347Z,78.40
2019-03-26T17:43:37.895Z,76.80
2019-03-26T17:46:07.765Z,74.50
2019-03-26T17:48:37.118Z,72.10
2019-03-26T17:51:05.630Z,70.00
2019-03-26T17:53:40.956Z,69.60
2019-03-26T17:56:09.218Z,69.20
2019-03-26T17:58:37.907Z,68.40
2019-03-26T18:01:08.297Z,67.10
2019-03-26T18:03:36.814Z,65.60
2019-03-26T18:06:07.476Z,65.20
2019-03-26T18:08:35.720Z,62.90
2019-03-26T18:11:04.227Z,62.60
2019-03-26T18:13:32.382Z,62.00
2019-03-26T18:16:00.884Z,61.90
2019-03-26T18:18:29.280Z,61.30
2019-03-26T18:21:01.349Z,60.40
2019-03-26T18:23:32.640Z,60.50
2019-03-26T18:26:01.056Z,60.50
2019-03-26T18:28:29.317Z,60.30
2019-03-26T18:31:02.306Z,60.40
2019-03-26T18:33:30.728Z,60.20
2019-03-26T18:35:59.060Z,60.40
2019-03-26T18:38:30.212Z,61.00
2019-03-26T18:40:58.540Z,60.60
2019-03-26T18:43:28.181Z,60.90
2019-03-26T18:45:56.697Z,61.10
2019-03-26T18:48:25.122Z,61.60
2019-03-26T18:50:53.850Z,61.80
2019-03-26T18:53:23.497Z,62.60
2019-03-26T18:55:51.825Z,63.10
2019-03-26T18:58:20.141Z,63.70
2019-03-26T19:00:48.523Z,63.70
2019-03-26T19:03:16.802Z,64.40
2019-03-26T19:05:45.151Z,63.90
2019-03-26T19:08:13.661Z,63.60
2019-03-26T19:10:42.150Z,63.60
2019-03-26T19:13:19.340Z,63.20
2019-03-26T19:15:40.699Z,62.50
2019-03-26T19:18:13.717Z,62.50
2019-03-26T19:20:43.571Z,62.80
2019-03-26T19:23:11.822Z,62.70
2019-03-26T19:25:40.220Z,62.60
2019-03-26T19:28:08.617Z,62.70
2019-03-26T19:30:55.419Z,61.90
2019-03-26T19:37:42.507Z,60.90
2019-03-26T19:40:13.952Z,60.40
2019-03-26T19:42:43.542Z,60.50
2019-03-26T19:45:12.358Z,60.00
2019-03-26T19:47:59.772Z,60.20
2019-03-26T19:50:28.592Z,59.20
2019-03-26T19:52:56.827Z,58.50
2019-03-26T19:55:33.367Z,58.60
2019-03-26T19:58:01.814Z,58.30
2019-03-26T20:00:30.026Z,58.80
2019-03-26T20:02:59.501Z,59.00
2019-03-26T20:05:48.468Z,58.70
2019-03-26T20:08:49.114Z,58.70
2019-03-26T20:14:47.993Z,58.40
2019-03-26T20:17:16.879Z,58.10
2019-03-26T20:19:49.022Z,58.10
2019-03-26T20:29:46.724Z,58.50
2019-03-26T20:32:31.410Z,58.60
2019-03-26T20:42:08.166Z,59.00
2019-03-26T20:44:36.384Z,58.80
2019-03-26T20:57:59.345Z,59.20
2019-03-26T21:07:57.628Z,59.90
2019-03-26T21:10:25.974Z,60.00
2019-03-26T21:13:57.094Z,59.90
2019-03-26T21:19:48.026Z,59.90
2019-03-26T21:25:58.722Z,60.20
2019-03-26T21:28:58.073Z,60.20
2019-03-26T21:35:29.168Z,60.50
2019-03-26T21:38:16.398Z,60.70
2019-03-26T21:40:47.659Z,60.70
2019-03-26T21:43:17.227Z,60.80
2019-03-26T21:45:45.982Z,60.90
2019-03-26T21:48:20.515Z,61.20
2019-03-26T21:51:01.367Z,61.20
2019-03-26T21:53:29.672Z,61.30
2019-03-26T22:00:13.960Z,61.30
2019-03-26T22:02:42.449Z,61.50
2019-03-26T22:08:26.245Z,61.60
2019-03-26T22:10:54.625Z,61.90
2019-03-26T22:13:22.981Z,62.10
2019-03-26T22:15:51.322Z,62.10
2019-03-26T22:18:19.644Z,62.20
2019-03-26T22:24:03.853Z,62.30
2019-03-26T22:26:54.680Z,62.20
2019-03-26T22:29:25.314Z,62.10
2019-03-26T22:31:53.526Z,62.20
2019-03-26T22:38:18.382Z,62.40
2019-03-26T22:44:40.301Z,62.30
2019-03-26T22:47:12.240Z,62.30
2019-03-26T22:53:56.643Z,62.60
2019-03-26T22:56:25.033Z,62.60
2019-03-26T22:58:53.325Z,62.50
2019-03-26T23:01:21.603Z,62.40
2019-03-26T23:03:49.873Z,62.70
2019-03-26T23:06:17.935Z,62.70
2019-03-26T23:08:46.676Z,62.70
2019-03-26T23:11:15.991Z,62.60
2019-03-26T23:13:44.175Z,62.80
2019-03-26T23:16:14.580Z,62.60
2019-03-26T23:18:42.854Z,62.60
2019-03-26T23:21:11.131Z,62.70
2019-03-26T23:23:39.605Z,62.80
2019-03-26T23:26:10.899Z,62.90
2019-03-26T23:28:39.123Z,62.80
2019-03-26T23:31:08.504Z,62.80
2019-03-26T23:33:36.761Z,62.70
2019-03-26T23:36:24.410Z,62.80
2019-03-26T23:38:59.521Z,62.90
2019-03-26T23:41:27.793Z,63.20
2019-03-26T23:43:58.884Z,63.20
2019-03-26T23:49:11.377Z,63.40
2019-03-26T23:51:49.055Z,63.00
2019-03-26T23:54:48.172Z,63.20
2019-03-26T23:57:16.553Z,63.20
2019-03-26T23:59:55.968Z,63.20
